sensor_id;sensor_type;location;lat;lon;timestamp;pressure;altitude;pressure_sealevel;temperature
71807;BMP280;59655;42.590;23.364;2023-03-23T00:02:30;91413.25;;;6.26
71807;BMP280;59655;42.590;23.364;2023-03-23T00:05:05;91412.16;;;6.35
71807;BMP280;59655;42.590;23.364;2023-03-23T00:07:33;91403.63;;;6.28
71807;BMP280;59655;42.590;23.364;2023-03-23T00:09:59;91400.69;;;6.32
71807;BMP280;59655;42.590;23.364;2023-03-23T00:12:30;91402.84;;;6.34
71807;BMP280;59655;42.590;23.364;2023-03-23T00:14:59;91403.91;;;6.12
71807;BMP280;59655;42.590;23.364;2023-03-23T00:17:27;91400.66;;;6.05
71807;BMP280;59655;42.590;23.364;2023-03-23T00:19:52;91408.59;;;6.19
71807;BMP280;59655;42.590;23.364;2023-03-23T00:22:18;91397.03;;;6.09
71807;BMP280;59655;42.590;23.364;2023-03-23T00:24:47;91406.16;;;6.21
71807;BMP280;59655;42.590;23.364;2023-03-23T00:27:16;91415.19;;;6.25
71807;BMP280;59655;42.590;23.364;2023-03-23T00:29:41;91413.50;;;5.96
71807;BMP280;59655;42.590;23.364;2023-03-23T00:32:08;91417.69;;;6.04
71807;BMP280;59655;42.590;23.364;2023-03-23T00:34:39;91411.69;;;6.04
71807;BMP280;59655;42.590;23.364;2023-03-23T00:37:07;91417.22;;;5.55
71807;BMP280;59655;42.590;23.364;2023-03-23T00:39:33;91416.31;;;5.52
71807;BMP280;59655;42.590;23.364;2023-03-23T00:41:58;91420.59;;;5.69
71807;BMP280;59655;42.590;23.364;2023-03-23T00:44:28;91419.28;;;5.94
71807;BMP280;59655;42.590;23.364;2023-03-23T00:46:55;91416.13;;;5.96
71807;BMP280;59655;42.590;23.364;2023-03-23T00:49:23;91420.81;;;6.03
71807;BMP280;59655;42.590;23.364;2023-03-23T00:51:51;91414.88;;;6.16
71807;BMP280;59655;42.590;23.364;2023-03-23T00:54:17;91429.16;;;6.20
71807;BMP280;59655;42.590;23.364;2023-03-23T00:56:42;91425.00;;;6.25
71807;BMP280;59655;42.590;23.364;2023-03-23T00:59:07;91428.16;;;6.37
71807;BMP280;59655;42.590;23.364;2023-03-23T01:01:33;91427.06;;;6.45
71807;BMP280;59655;42.590;23.364;2023-03-23T01:04:00;91437.00;;;6.53
71807;BMP280;59655;42.590;23.364;2023-03-23T01:06:29;91432.13;;;6.57
71807;BMP280;59655;42.590;23.364;2023-03-23T01:08:57;91426.25;;;6.64
71807;BMP280;59655;42.590;23.364;2023-03-23T01:11:22;91433.03;;;6.59
71807;BMP280;59655;42.590;23.364;2023-03-23T01:13:49;91423.81;;;6.66
71807;BMP280;59655;42.590;23.364;2023-03-23T01:16:14;91424.22;;;6.70
71807;BMP280;59655;42.590;23.364;2023-03-23T01:18:40;91420.38;;;6.71
71807;BMP280;59655;42.590;23.364;2023-03-23T01:21:10;91422.72;;;6.75
71807;BMP280;59655;42.590;23.364;2023-03-23T01:23:36;91416.03;;;6.74
71807;BMP280;59655;42.590;23.364;2023-03-23T01:26:08;91421.88;;;6.80
71807;BMP280;59655;42.590;23.364;2023-03-23T01:28:35;91423.59;;;6.77
71807;BMP280;59655;42.590;23.364;2023-03-23T01:31:07;91426.22;;;6.77
71807;BMP280;59655;42.590;23.364;2023-03-23T01:33:34;91419.97;;;6.67
71807;BMP280;59655;42.590;23.364;2023-03-23T01:36:08;91419.75;;;6.38
71807;BMP280;59655;42.590;23.364;2023-03-23T01:38:35;91426.66;;;6.41
71807;BMP280;59655;42.590;23.364;2023-03-23T01:41:01;91423.09;;;6.52
71807;BMP280;59655;42.590;23.364;2023-03-23T01:43:27;91419.38;;;6.61
71807;BMP280;59655;42.590;23.364;2023-03-23T01:45:53;91415.09;;;6.58
71807;BMP280;59655;42.590;23.364;2023-03-23T01:48:23;91415.91;;;6.53
71807;BMP280;59655;42.590;23.364;2023-03-23T01:50:56;91415.41;;;6.41
71807;BMP280;59655;42.590;23.364;2023-03-23T01:53:28;91412.22;;;6.29
71807;BMP280;59655;42.590;23.364;2023-03-23T01:55:54;91408.59;;;6.32
71807;BMP280;59655;42.590;23.364;2023-03-23T01:58:25;91405.88;;;6.38
71807;BMP280;59655;42.590;23.364;2023-03-23T02:00:54;91405.00;;;6.48
71807;BMP280;59655;42.590;23.364;2023-03-23T02:03:20;91402.94;;;6.41
71807;BMP280;59655;42.590;23.364;2023-03-23T02:05:48;91407.78;;;6.37
71807;BMP280;59655;42.590;23.364;2023-03-23T02:08:16;91402.34;;;6.48
71807;BMP280;59655;42.590;23.364;2023-03-23T02:10:43;91398.88;;;6.40
71807;BMP280;59655;42.590;23.364;2023-03-23T02:13:11;91404.75;;;6.46
71807;BMP280;59655;42.590;23.364;2023-03-23T02:15:47;91401.00;;;6.55
71807;BMP280;59655;42.590;23.364;2023-03-23T02:18:19;91404.06;;;6.59
71807;BMP280;59655;42.590;23.364;2023-03-23T02:34:43;91410.25;;;6.35
71807;BMP280;59655;42.590;23.364;2023-03-23T02:37:24;91412.03;;;6.27
71807;BMP280;59655;42.590;23.364;2023-03-23T02:39:56;91405.28;;;6.32
71807;BMP280;59655;42.590;23.364;2023-03-23T02:42:27;91414.16;;;6.28
71807;BMP280;59655;42.590;23.364;2023-03-23T02:44:54;91416.22;;;6.36
71807;BMP280;59655;42.590;23.364;2023-03-23T02:47:23;91419.66;;;6.44
71807;BMP280;59655;42.590;23.364;2023-03-23T02:49:52;91416.81;;;6.42
71807;BMP280;59655;42.590;23.364;2023-03-23T02:52:22;91421.38;;;6.41
71807;BMP280;59655;42.590;23.364;2023-03-23T02:54:49;91425.63;;;6.44
71807;BMP280;59655;42.590;23.364;2023-03-23T02:57:16;91429.50;;;6.43
71807;BMP280;59655;42.590;23.364;2023-03-23T02:59:42;91426.28;;;6.51
71807;BMP280;59655;42.590;23.364;2023-03-23T03:02:18;91435.75;;;6.54
71807;BMP280;59655;42.590;23.364;2023-03-23T03:16:28;91440.00;;;6.17
71807;BMP280;59655;42.590;23.364;2023-03-23T03:19:17;91444.88;;;6.26
71807;BMP280;59655;42.590;23.364;2023-03-23T03:21:46;91441.34;;;6.37
71807;BMP280;59655;42.590;23.364;2023-03-23T03:24:16;91449.34;;;6.44
71807;BMP280;59655;42.590;23.364;2023-03-23T03:26:46;91455.56;;;6.47
71807;BMP280;59655;42.590;23.364;2023-03-23T03:29:17;91461.72;;;6.49
71807;BMP280;59655;42.590;23.364;2023-03-23T03:31:44;91455.25;;;6.51
71807;BMP280;59655;42.590;23.364;2023-03-23T03:34:12;91452.28;;;6.54
71807;BMP280;59655;42.590;23.364;2023-03-23T03:36:45;91457.97;;;6.45
71807;BMP280;59655;42.590;23.364;2023-03-23T03:39:11;91459.25;;;6.38
71807;BMP280;59655;42.590;23.364;2023-03-23T03:41:37;91452.28;;;6.41
71807;BMP280;59655;42.590;23.364;2023-03-23T03:44:04;91454.59;;;6.31
71807;BMP280;59655;42.590;23.364;2023-03-23T03:46:31;91450.06;;;6.32
71807;BMP280;59655;42.590;23.364;2023-03-23T03:48:57;91454.50;;;6.23
71807;BMP280;59655;42.590;23.364;2023-03-23T03:51:24;91449.13;;;6.16
71807;BMP280;59655;42.590;23.364;2023-03-23T03:53:50;91451.97;;;6.31
71807;BMP280;59655;42.590;23.364;2023-03-23T03:56:15;91452.47;;;6.30
71807;BMP280;59655;42.590;23.364;2023-03-23T03:58:41;91453.81;;;6.36
71807;BMP280;59655;42.590;23.364;2023-03-23T04:01:08;91452.38;;;6.22
71807;BMP280;59655;42.590;23.364;2023-03-23T04:03:36;91441.34;;;6.37
71807;BMP280;59655;42.590;23.364;2023-03-23T04:06:02;91443.56;;;6.46
71807;BMP280;59655;42.590;23.364;2023-03-23T04:08:28;91441.03;;;6.40
71807;BMP280;59655;42.590;23.364;2023-03-23T04:10:54;91443.84;;;6.29
71807;BMP280;59655;42.590;23.364;2023-03-23T04:13:20;91442.34;;;6.34
71807;BMP280;59655;42.590;23.364;2023-03-23T04:15:47;91437.31;;;6.36
71807;BMP280;59655;42.590;23.364;2023-03-23T04:18:13;91441.41;;;6.31
71807;BMP280;59655;42.590;23.364;2023-03-23T04:20:42;91443.03;;;6.21
71807;BMP280;59655;42.590;23.364;2023-03-23T04:23:08;91452.38;;;6.22
71807;BMP280;59655;42.590;23.364;2023-03-23T04:25:34;91445.38;;;6.38
71807;BMP280;59655;42.590;23.364;2023-03-23T04:28:01;91447.03;;;6.41
71807;BMP280;59655;42.590;23.364;2023-03-23T04:30:27;91445.72;;;6.47
71807;BMP280;59655;42.590;23.364;2023-03-23T04:32:54;91448.44;;;6.42
71807;BMP280;59655;42.590;23.364;2023-03-23T04:35:22;91448.34;;;6.47
71807;BMP280;59655;42.590;23.364;2023-03-23T04:37:50;91453.81;;;6.36
71807;BMP280;59655;42.590;23.364;2023-03-23T04:40:16;91450.38;;;6.41
71807;BMP280;59655;42.590;23.364;2023-03-23T04:42:43;91452.91;;;6.47
71807;BMP280;59655;42.590;23.364;2023-03-23T04:45:18;91451.56;;;6.54
71807;BMP280;59655;42.590;23.364;2023-03-23T04:47:47;91456.53;;;6.31
71807;BMP280;59655;42.590;23.364;2023-03-23T04:50:19;91466.56;;;6.32
71807;BMP280;59655;42.590;23.364;2023-03-23T04:52:47;91456.47;;;6.49
71807;BMP280;59655;42.590;23.364;2023-03-23T04:55:13;91462.13;;;6.54
71807;BMP280;59655;42.590;23.364;2023-03-23T04:57:39;91472.34;;;6.44
71807;BMP280;59655;42.590;23.364;2023-03-23T05:00:06;91467.59;;;6.56
71807;BMP280;59655;42.590;23.364;2023-03-23T05:02:37;91470.44;;;6.58
71807;BMP280;59655;42.590;23.364;2023-03-23T05:05:06;91469.66;;;6.63
71807;BMP280;59655;42.590;23.364;2023-03-23T05:07:31;91469.84;;;6.65
71807;BMP280;59655;42.590;23.364;2023-03-23T05:09:57;91474.22;;;6.62
71807;BMP280;59655;42.590;23.364;2023-03-23T05:12:23;91468.84;;;6.68
71807;BMP280;59655;42.590;23.364;2023-03-23T05:14:48;91477.16;;;6.72
71807;BMP280;59655;42.590;23.364;2023-03-23T05:17:14;91480.00;;;6.74
71807;BMP280;59655;42.590;23.364;2023-03-23T05:19:43;91477.56;;;6.76
71807;BMP280;59655;42.590;23.364;2023-03-23T05:22:10;91471.25;;;6.79
71807;BMP280;59655;42.590;23.364;2023-03-23T05:24:38;91470.53;;;6.65
71807;BMP280;59655;42.590;23.364;2023-03-23T05:27:03;91478.97;;;6.51
71807;BMP280;59655;42.590;23.364;2023-03-23T05:29:29;91485.47;;;6.76
71807;BMP280;59655;42.590;23.364;2023-03-23T05:31:56;91480.00;;;6.87
71807;BMP280;59655;42.590;23.364;2023-03-23T05:34:26;91492.56;;;6.95
71807;BMP280;59655;42.590;23.364;2023-03-23T05:36:52;91490.75;;;7.03
71807;BMP280;59655;42.590;23.364;2023-03-23T05:39:19;91496.13;;;7.10
71807;BMP280;59655;42.590;23.364;2023-03-23T05:41:44;91494.06;;;7.17
71807;BMP280;59655;42.590;23.364;2023-03-23T05:44:11;91493.03;;;7.20
71807;BMP280;59655;42.590;23.364;2023-03-23T05:46:38;91496.81;;;7.24
71807;BMP280;59655;42.590;23.364;2023-03-23T05:49:04;91496.13;;;7.24
71807;BMP280;59655;42.590;23.364;2023-03-23T05:51:29;91488.78;;;7.30
71807;BMP280;59655;42.590;23.364;2023-03-23T05:53:55;91495.16;;;7.35
71807;BMP280;59655;42.590;23.364;2023-03-23T05:56:20;91494.66;;;7.36
71807;BMP280;59655;42.590;23.364;2023-03-23T05:58:46;91505.50;;;7.46
71807;BMP280;59655;42.590;23.364;2023-03-23T06:01:12;91500.03;;;7.44
71807;BMP280;59655;42.590;23.364;2023-03-23T06:03:41;91506.72;;;7.45
71807;BMP280;59655;42.590;23.364;2023-03-23T06:06:09;91498.28;;;7.46
71807;BMP280;59655;42.590;23.364;2023-03-23T06:08:35;91501.75;;;7.54
71807;BMP280;59655;42.590;23.364;2023-03-23T06:11:02;91506.69;;;7.58
71807;BMP280;59655;42.590;23.364;2023-03-23T06:13:28;91511.13;;;7.63
71807;BMP280;59655;42.590;23.364;2023-03-23T06:15:56;91513.19;;;7.70
71807;BMP280;59655;42.590;23.364;2023-03-23T06:18:23;91502.09;;;7.72
71807;BMP280;59655;42.590;23.364;2023-03-23T06:20:49;91512.94;;;7.82
71807;BMP280;59655;42.590;23.364;2023-03-23T06:23:14;91503.78;;;7.83
71807;BMP280;59655;42.590;23.364;2023-03-23T06:25:39;91504.34;;;7.89
71807;BMP280;59655;42.590;23.364;2023-03-23T06:28:05;91507.19;;;7.91
71807;BMP280;59655;42.590;23.364;2023-03-23T06:30:31;91515.91;;;7.99
71807;BMP280;59655;42.590;23.364;2023-03-23T06:32:57;91511.53;;;8.02
71807;BMP280;59655;42.590;23.364;2023-03-23T06:35:23;91514.25;;;8.09
71807;BMP280;59655;42.590;23.364;2023-03-23T06:37:48;91512.63;;;8.06
71807;BMP280;59655;42.590;23.364;2023-03-23T06:40:14;91508.59;;;8.05
71807;BMP280;59655;42.590;23.364;2023-03-23T06:42:39;91514.94;;;8.10
71807;BMP280;59655;42.590;23.364;2023-03-23T06:45:05;91511.78;;;8.11
71807;BMP280;59655;42.590;23.364;2023-03-23T06:47:32;91512.00;;;8.13
71807;BMP280;59655;42.590;23.364;2023-03-23T06:49:58;91520.31;;;8.17
71807;BMP280;59655;42.590;23.364;2023-03-23T06:52:24;91519.09;;;8.19
71807;BMP280;59655;42.590;23.364;2023-03-23T06:54:51;91525.97;;;8.22
71807;BMP280;59655;42.590;23.364;2023-03-23T06:57:17;91519.16;;;8.26
71807;BMP280;59655;42.590;23.364;2023-03-23T06:59:43;91529.06;;;8.33
71807;BMP280;59655;42.590;23.364;2023-03-23T07:02:12;91526.31;;;8.39
71807;BMP280;59655;42.590;23.364;2023-03-23T07:04:40;91530.38;;;8.40
71807;BMP280;59655;42.590;23.364;2023-03-23T07:07:07;91536.22;;;8.46
71807;BMP280;59655;42.590;23.364;2023-03-23T07:09:33;91537.84;;;8.49
71807;BMP280;59655;42.590;23.364;2023-03-23T07:12:02;91537.28;;;8.51
71807;BMP280;59655;42.590;23.364;2023-03-23T07:14:28;91535.56;;;8.53
71807;BMP280;59655;42.590;23.364;2023-03-23T07:16:54;91529.78;;;8.55
71807;BMP280;59655;42.590;23.364;2023-03-23T07:19:20;91536.78;;;8.52
71807;BMP280;59655;42.590;23.364;2023-03-23T07:21:45;91536.78;;;8.52
71807;BMP280;59655;42.590;23.364;2023-03-23T07:24:13;91529.19;;;8.49
71807;BMP280;59655;42.590;23.364;2023-03-23T07:26:40;91540.34;;;8.55
71807;BMP280;59655;42.590;23.364;2023-03-23T07:29:07;91539.94;;;8.51
71807;BMP280;59655;42.590;23.364;2023-03-23T07:31:32;91539.94;;;8.51
71807;BMP280;59655;42.590;23.364;2023-03-23T07:33:58;91535.53;;;8.46
71807;BMP280;59655;42.590;23.364;2023-03-23T07:36:23;91536.03;;;8.44
71807;BMP280;59655;42.590;23.364;2023-03-23T07:38:49;91542.03;;;8.45
71807;BMP280;59655;42.590;23.364;2023-03-23T07:41:15;91538.88;;;8.46
71807;BMP280;59655;42.590;23.364;2023-03-23T07:43:40;91537.50;;;8.53
71807;BMP280;59655;42.590;23.364;2023-03-23T07:46:06;91552.84;;;8.54
71807;BMP280;59655;42.590;23.364;2023-03-23T07:48:32;91550.75;;;8.53
71807;BMP280;59655;42.590;23.364;2023-03-23T07:50:58;91557.63;;;8.56
71807;BMP280;59655;42.590;23.364;2023-03-23T07:53:24;91558.53;;;8.58
71807;BMP280;59655;42.590;23.364;2023-03-23T07:55:50;91562.59;;;8.59
71807;BMP280;59655;42.590;23.364;2023-03-23T07:58:15;91564.91;;;8.63
71807;BMP280;59655;42.590;23.364;2023-03-23T08:00:45;91564.00;;;8.60
71807;BMP280;59655;42.590;23.364;2023-03-23T08:03:11;91561.91;;;8.59
71807;BMP280;59655;42.590;23.364;2023-03-23T08:05:37;91571.56;;;8.56
71807;BMP280;59655;42.590;23.364;2023-03-23T08:08:03;91571.03;;;8.58
71807;BMP280;59655;42.590;23.364;2023-03-23T08:10:29;91572.28;;;8.57
71807;BMP280;59655;42.590;23.364;2023-03-23T08:12:55;91576.00;;;8.62
71807;BMP280;59655;42.590;23.364;2023-03-23T08:15:23;91578.84;;;8.64
71807;BMP280;59655;42.590;23.364;2023-03-23T08:17:49;91582.72;;;8.63
71807;BMP280;59655;42.590;23.364;2023-03-23T08:20:16;91580.78;;;8.63
71807;BMP280;59655;42.590;23.364;2023-03-23T08:22:45;91585.38;;;8.63
71807;BMP280;59655;42.590;23.364;2023-03-23T08:25:13;91585.75;;;8.67
71807;BMP280;59655;42.590;23.364;2023-03-23T08:27:39;91575.19;;;8.67
71807;BMP280;59655;42.590;23.364;2023-03-23T08:30:10;91572.94;;;8.71
71807;BMP280;59655;42.590;23.364;2023-03-23T08:32:36;91585.50;;;8.78
71807;BMP280;59655;42.590;23.364;2023-03-23T08:35:02;91580.91;;;8.78
71807;BMP280;59655;42.590;23.364;2023-03-23T08:37:28;91577.56;;;8.78
71807;BMP280;59655;42.590;23.364;2023-03-23T08:39:55;91580.75;;;8.84
71807;BMP280;59655;42.590;23.364;2023-03-23T08:42:24;91577.28;;;8.89
71807;BMP280;59655;42.590;23.364;2023-03-23T08:44:50;91577.84;;;8.95
71807;BMP280;59655;42.590;23.364;2023-03-23T08:47:15;91579.25;;;8.96
71807;BMP280;59655;42.590;23.364;2023-03-23T08:49:41;91573.66;;;9.00
71807;BMP280;59655;42.590;23.364;2023-03-23T08:52:08;91573.25;;;8.96
71807;BMP280;59655;42.590;23.364;2023-03-23T08:54:34;91567.25;;;8.95
71807;BMP280;59655;42.590;23.364;2023-03-23T08:57:00;91571.13;;;8.94
71807;BMP280;59655;42.590;23.364;2023-03-23T08:59:26;91571.56;;;9.06
71807;BMP280;59655;42.590;23.364;2023-03-23T09:01:52;91578.97;;;9.08
71807;BMP280;59655;42.590;23.364;2023-03-23T09:04:18;91577.97;;;9.11
71807;BMP280;59655;42.590;23.364;2023-03-23T09:06:43;91575.81;;;9.09
71807;BMP280;59655;42.590;23.364;2023-03-23T09:09:11;91578.31;;;9.15
71807;BMP280;59655;42.590;23.364;2023-03-23T09:11:38;91577.22;;;9.10
71807;BMP280;59655;42.590;23.364;2023-03-23T09:14:06;91586.41;;;9.09
71807;BMP280;59655;42.590;23.364;2023-03-23T09:16:33;91577.06;;;9.16
71807;BMP280;59655;42.590;23.364;2023-03-23T09:19:00;91571.09;;;9.15
71807;BMP280;59655;42.590;23.364;2023-03-23T09:21:27;91578.50;;;9.17
71807;BMP280;59655;42.590;23.364;2023-03-23T09:23:52;91576.75;;;9.19
71807;BMP280;59655;42.590;23.364;2023-03-23T09:26:18;91571.81;;;9.23
71807;BMP280;59655;42.590;23.364;2023-03-23T09:28:44;91572.53;;;9.24
71807;BMP280;59655;42.590;23.364;2023-03-23T09:31:11;91568.16;;;9.27
71807;BMP280;59655;42.590;23.364;2023-03-23T09:33:38;91572.03;;;9.33
71807;BMP280;59655;42.590;23.364;2023-03-23T09:36:03;91572.97;;;9.36
71807;BMP280;59655;42.590;23.364;2023-03-23T09:38:31;91575.41;;;9.34
71807;BMP280;59655;42.590;23.364;2023-03-23T09:41:12;91570.84;;;9.34
71807;BMP280;59655;42.590;23.364;2023-03-23T09:46:51;91562.16;;;9.34
71807;BMP280;59655;42.590;23.364;2023-03-23T09:49:34;91569.22;;;9.31
71807;BMP280;59655;42.590;23.364;2023-03-23T09:52:11;91567.81;;;9.30
71807;BMP280;59655;42.590;23.364;2023-03-23T09:54:40;91572.59;;;9.39
71807;BMP280;59655;42.590;23.364;2023-03-23T09:57:19;91565.38;;;9.40
71807;BMP280;59655;42.590;23.364;2023-03-23T09:59:55;91563.44;;;9.40
71807;BMP280;59655;42.590;23.364;2023-03-23T10:02:28;91559.03;;;9.43
71807;BMP280;59655;42.590;23.364;2023-03-23T10:05:06;91560.84;;;9.48
71807;BMP280;59655;42.590;23.364;2023-03-23T10:07:37;91564.88;;;9.49
71807;BMP280;59655;42.590;23.364;2023-03-23T10:10:04;91562.63;;;9.53
71807;BMP280;59655;42.590;23.364;2023-03-23T10:17:45;91565.81;;;9.59
71807;BMP280;59655;42.590;23.364;2023-03-23T10:25:48;91562.28;;;9.64
71807;BMP280;59655;42.590;23.364;2023-03-23T10:28:20;91556.31;;;9.64
71807;BMP280;59655;42.590;23.364;2023-03-23T10:30:53;91551.69;;;9.64
71807;BMP280;59655;42.590;23.364;2023-03-23T10:33:25;91556.81;;;9.62
71807;BMP280;59655;42.590;23.364;2023-03-23T10:38:55;91544.34;;;9.78
71807;BMP280;59655;42.590;23.364;2023-03-23T10:41:22;91541.50;;;9.76
71807;BMP280;59655;42.590;23.364;2023-03-23T10:43:47;91551.03;;;9.79
71807;BMP280;59655;42.590;23.364;2023-03-23T10:49:08;91542.91;;;9.77
71807;BMP280;59655;42.590;23.364;2023-03-23T10:51:40;91533.91;;;9.80
71807;BMP280;59655;42.590;23.364;2023-03-23T10:54:06;91538.69;;;9.97
71807;BMP280;59655;42.590;23.364;2023-03-23T10:56:37;91531.66;;;9.92
71807;BMP280;59655;42.590;23.364;2023-03-23T10:59:25;91543.66;;;9.93
71807;BMP280;59655;42.590;23.364;2023-03-23T11:01:54;91542.28;;;10.00
71807;BMP280;59655;42.590;23.364;2023-03-23T11:04:20;91543.50;;;10.06
71807;BMP280;59655;42.590;23.364;2023-03-23T11:06:49;91542.78;;;10.06
71807;BMP280;59655;42.590;23.364;2023-03-23T11:09:17;91544.03;;;10.13
71807;BMP280;59655;42.590;23.364;2023-03-23T11:11:49;91530.25;;;10.14
71807;BMP280;59655;42.590;23.364;2023-03-23T11:14:19;91541.03;;;10.16
71807;BMP280;59655;42.590;23.364;2023-03-23T11:16:51;91533.44;;;10.20
71807;BMP280;59655;42.590;23.364;2023-03-23T11:19:33;91533.44;;;10.20
71807;BMP280;59655;42.590;23.364;2023-03-23T11:24:34;91527.09;;;10.23
71807;BMP280;59655;42.590;23.364;2023-03-23T11:27:01;91520.75;;;10.26
71807;BMP280;59655;42.590;23.364;2023-03-23T11:29:32;91520.75;;;10.34
71807;BMP280;59655;42.590;23.364;2023-03-23T11:34:35;91519.50;;;10.43
71807;BMP280;59655;42.590;23.364;2023-03-23T11:39:31;91515.78;;;10.46
71807;BMP280;59655;42.590;23.364;2023-03-23T11:41:59;91509.41;;;10.49
71807;BMP280;59655;42.590;23.364;2023-03-23T11:44:33;91509.06;;;10.52
71807;BMP280;59655;42.590;23.364;2023-03-23T11:47:35;91495.59;;;10.58
71807;BMP280;59655;42.590;23.364;2023-03-23T11:50:03;91494.38;;;10.59
71807;BMP280;59655;42.590;23.364;2023-03-23T11:57:37;91496.63;;;10.70
71807;BMP280;59655;42.590;23.364;2023-03-23T12:00:13;91494.38;;;10.67
71807;BMP280;59655;42.590;23.364;2023-03-23T12:02:59;91486.72;;;10.71
71807;BMP280;59655;42.590;23.364;2023-03-23T12:05:34;91491.88;;;10.77
71807;BMP280;59655;42.590;23.364;2023-03-23T12:16:02;91486.84;;;10.96
71807;BMP280;59655;42.590;23.364;2023-03-23T12:23:58;91481.50;;;11.11
71807;BMP280;59655;42.590;23.364;2023-03-23T12:26:29;91477.72;;;11.22
71807;BMP280;59655;42.590;23.364;2023-03-23T12:42:37;91473.41;;;12.00
71807;BMP280;59655;42.590;23.364;2023-03-23T12:47:40;91472.75;;;12.34
71807;BMP280;59655;42.590;23.364;2023-03-23T12:52:53;91476.63;;;12.93
71807;BMP280;59655;42.590;23.364;2023-03-23T12:55:26;91482.75;;;13.57
71807;BMP280;59655;42.590;23.364;2023-03-23T12:58:01;91484.03;;;15.99
71807;BMP280;59655;42.590;23.364;2023-03-23T13:00:28;91471.47;;;16.99
71807;BMP280;59655;42.590;23.364;2023-03-23T13:03:20;91475.00;;;17.59
71807;BMP280;59655;42.590;23.364;2023-03-23T13:05:53;91479.50;;;18.15
71807;BMP280;59655;42.590;23.364;2023-03-23T13:11:30;91474.25;;;19.31
71807;BMP280;59655;42.590;23.364;2023-03-23T13:17:02;91482.59;;;19.63
71807;BMP280;59655;42.590;23.364;2023-03-23T13:24:55;91474.59;;;20.93
71807;BMP280;59655;42.590;23.364;2023-03-23T13:27:25;91473.75;;;21.36
71807;BMP280;59655;42.590;23.364;2023-03-23T13:29:56;91468.88;;;21.48
71807;BMP280;59655;42.590;23.364;2023-03-23T13:32:33;91469.91;;;21.25
71807;BMP280;59655;42.590;23.364;2023-03-23T13:35:02;91472.94;;;21.81
71807;BMP280;59655;42.590;23.364;2023-03-23T13:37:29;91465.69;;;22.19
71807;BMP280;59655;42.590;23.364;2023-03-23T13:42:34;91469.72;;;21.68
71807;BMP280;59655;42.590;23.364;2023-03-23T13:47:50;91461.16;;;22.59
71807;BMP280;59655;42.590;23.364;2023-03-23T13:50:28;91457.53;;;22.53
71807;BMP280;59655;42.590;23.364;2023-03-23T13:52:59;91454.28;;;22.74
71807;BMP280;59655;42.590;23.364;2023-03-23T13:58:09;91457.06;;;22.76
71807;BMP280;59655;42.590;23.364;2023-03-23T14:00:48;91457.38;;;22.66
71807;BMP280;59655;42.590;23.364;2023-03-23T14:03:38;91455.91;;;22.28
71807;BMP280;59655;42.590;23.364;2023-03-23T14:06:13;91452.47;;;22.09
71807;BMP280;59655;42.590;23.364;2023-03-23T14:08:42;91443.31;;;21.83
71807;BMP280;59655;42.590;23.364;2023-03-23T14:11:15;91452.75;;;21.66
71807;BMP280;59655;42.590;23.364;2023-03-23T14:14:00;91451.81;;;21.27
71807;BMP280;59655;42.590;23.364;2023-03-23T14:16:49;91446.97;;;20.94
71807;BMP280;59655;42.590;23.364;2023-03-23T14:19:24;91454.13;;;20.88
71807;BMP280;59655;42.590;23.364;2023-03-23T14:26:45;91428.34;;;20.39
71807;BMP280;59655;42.590;23.364;2023-03-23T14:29:12;91438.13;;;20.33
71807;BMP280;59655;42.590;23.364;2023-03-23T14:31:39;91441.19;;;19.97
71807;BMP280;59655;42.590;23.364;2023-03-23T14:34:13;91434.91;;;19.38
71807;BMP280;59655;42.590;23.364;2023-03-23T14:36:40;91441.97;;;18.92
71807;BMP280;59655;42.590;23.364;2023-03-23T14:41:43;91439.13;;;19.01
71807;BMP280;59655;42.590;23.364;2023-03-23T14:44:14;91434.53;;;18.53
71807;BMP280;59655;42.590;23.364;2023-03-23T14:46:42;91432.16;;;17.84
71807;BMP280;59655;42.590;23.364;2023-03-23T14:49:12;91436.22;;;17.85
71807;BMP280;59655;42.590;23.364;2023-03-23T14:51:47;91443.56;;;17.85
71807;BMP280;59655;42.590;23.364;2023-03-23T14:54:13;91432.50;;;17.67
71807;BMP280;59655;42.590;23.364;2023-03-23T14:56:39;91431.38;;;17.58
71807;BMP280;59655;42.590;23.364;2023-03-23T14:59:06;91426.34;;;17.41
71807;BMP280;59655;42.590;23.364;2023-03-23T15:01:34;91431.72;;;17.29
71807;BMP280;59655;42.590;23.364;2023-03-23T15:04:23;91431.19;;;17.21
71807;BMP280;59655;42.590;23.364;2023-03-23T15:07:03;91430.28;;;17.28
71807;BMP280;59655;42.590;23.364;2023-03-23T15:09:29;91430.97;;;17.29
71807;BMP280;59655;42.590;23.364;2023-03-23T15:11:59;91422.44;;;17.20
71807;BMP280;59655;42.590;23.364;2023-03-23T15:14:30;91423.25;;;17.11
71807;BMP280;59655;42.590;23.364;2023-03-23T15:16:59;91423.72;;;17.08
71807;BMP280;59655;42.590;23.364;2023-03-23T15:19:33;91423.47;;;16.92
71807;BMP280;59655;42.590;23.364;2023-03-23T15:22:06;91421.81;;;16.87
71807;BMP280;59655;42.590;23.364;2023-03-23T15:24:34;91413.25;;;16.78
71807;BMP280;59655;42.590;23.364;2023-03-23T15:27:14;91413.34;;;16.69
71807;BMP280;59655;42.590;23.364;2023-03-23T15:30:14;91413.81;;;16.65
71807;BMP280;59655;42.590;23.364;2023-03-23T15:32:42;91411.09;;;16.53
71807;BMP280;59655;42.590;23.364;2023-03-23T15:35:15;91414.41;;;16.42
71807;BMP280;59655;42.590;23.364;2023-03-23T15:38:03;91417.50;;;16.27
71807;BMP280;59655;42.590;23.364;2023-03-23T15:40:37;91416.88;;;16.17
71807;BMP280;59655;42.590;23.364;2023-03-23T15:43:23;91429.25;;;16.00
71807;BMP280;59655;42.590;23.364;2023-03-23T15:45:58;91427.09;;;15.77
71807;BMP280;59655;42.590;23.364;2023-03-23T15:48:49;91432.16;;;15.83
71807;BMP280;59655;42.590;23.364;2023-03-23T15:51:16;91429.47;;;15.52
71807;BMP280;59655;42.590;23.364;2023-03-23T15:53:43;91443.22;;;15.07
71807;BMP280;59655;42.590;23.364;2023-03-23T15:56:10;91441.13;;;15.06
71807;BMP280;59655;42.590;23.364;2023-03-23T15:58:36;91448.59;;;14.88
71807;BMP280;59655;42.590;23.364;2023-03-23T16:01:04;91448.88;;;14.72
71807;BMP280;59655;42.590;23.364;2023-03-23T16:03:46;91443.00;;;14.64
71807;BMP280;59655;42.590;23.364;2023-03-23T16:06:13;91452.38;;;14.36
71807;BMP280;59655;42.590;23.364;2023-03-23T16:08:40;91449.16;;;14.28
71807;BMP280;59655;42.590;23.364;2023-03-23T16:11:10;91461.03;;;14.07
71807;BMP280;59655;42.590;23.364;2023-03-23T16:13:36;91460.31;;;13.60
71807;BMP280;59655;42.590;23.364;2023-03-23T16:16:02;91448.31;;;13.69